Time;durP1;ratioP1;P1;durP2;ratioP2;P2;SDS_P1;SDS_P2;PMS_P1;PMS_P2;Temp;Humidity;BMP_temperature;BMP_pressure;BME280_temperature;BME280_humidity;BME280_pressure;Samples;Min_cycle;Max_cycle;Signal;HPM_P1;HPM_P2
2024/03/10 00:02:10;;;;;;;28.38;17.25;;;;;;;11.84;55.13;100271.09;5028991;27;96956;-73
2024/03/10 00:04:37;;;;;;;31.05;17.15;;;;;;;11.66;55.81;100272.81;5027593;27;99326;-74
2024/03/10 00:07:04;;;;;;;35.30;18.77;;;;;;;11.76;55.59;100275.88;5029172;27;100103;-73
2024/03/10 00:09:30;;;;;;;33.20;18.35;;;;;;;11.66;55.59;100270.16;5028549;27;96913;-74
2024/03/10 00:11:56;;;;;;;31.92;18.15;;;;;;;11.63;56.02;100275.59;5027268;27;97665;-73
2024/03/10 00:14:23;;;;;;;31.08;17.65;;;;;;;11.40;56.71;100267.88;5027274;27;99360;-74
2024/03/10 00:16:49;;;;;;;33.60;18.10;;;;;;;11.62;56.16;100268.56;5026660;27;98757;-73
2024/03/10 00:19:17;;;;;;;35.20;18.65;;;;;;;11.41;56.53;100265.16;5027429;27;96954;-73
2024/03/10 00:21:43;;;;;;;33.78;17.98;;;;;;;11.36;56.85;100264.50;5033192;27;98380;-72
2024/03/10 00:24:10;;;;;;;32.30;18.27;;;;;;;11.62;56.30;100259.81;5025346;27;102828;-73
2024/03/10 00:26:36;;;;;;;32.70;18.33;;;;;;;11.68;55.83;100262.16;5027989;27;99045;-72
2024/03/10 00:29:03;;;;;;;31.85;17.67;;;;;;;11.75;55.70;100261.78;5022897;27;98433;-71
2024/03/10 00:31:30;;;;;;;35.38;19.35;;;;;;;11.66;56.17;100266.66;5024890;27;98830;-73
2024/03/10 00:33:57;;;;;;;35.58;19.30;;;;;;;11.75;55.74;100260.97;5023997;27;98855;-74
2024/03/10 00:36:24;;;;;;;31.63;18.00;;;;;;;11.71;55.62;100259.34;5023465;27;98207;-74
2024/03/10 00:38:51;;;;;;;32.67;18.27;;;;;;;11.61;55.82;100253.66;5020975;27;98695;-73
2024/03/10 00:41:18;;;;;;;34.97;18.92;;;;;;;11.80;55.75;100253.66;5024600;27;97345;-74
2024/03/10 00:43:44;;;;;;;32.78;18.33;;;;;;;11.57;56.06;100258.22;5029119;27;99113;-73
2024/03/10 00:46:10;;;;;;;32.50;18.35;;;;;;;11.67;55.86;100263.94;5024862;27;99000;-71
2024/03/10 00:48:37;;;;;;;33.85;18.35;;;;;;;11.57;56.40;100260.84;5018114;27;97166;-71
2024/03/10 00:51:03;;;;;;;33.42;19.15;;;;;;;11.67;55.96;100263.09;5018294;27;97456;-71
2024/03/10 00:53:31;;;;;;;36.53;18.17;;;;;;;11.71;55.92;100264.63;5021330;27;99834;-71
2024/03/10 00:55:57;;;;;;;31.00;16.98;;;;;;;11.63;56.15;100257.06;5027278;27;98745;-72
2024/03/10 00:58:24;;;;;;;33.03;17.40;;;;;;;11.42;56.74;100256.28;5018731;27;97743;-71
2024/03/10 01:00:50;;;;;;;35.28;18.90;;;;;;;11.40;56.85;100266.09;5020123;27;98133;-71
2024/03/10 01:03:17;;;;;;;36.42;18.48;;;;;;;11.36;56.86;100259.22;5024954;27;98924;-72
2024/03/10 01:05:43;;;;;;;36.63;18.30;;;;;;;11.46;56.59;100251.72;5021287;27;99034;-72
2024/03/10 01:08:10;;;;;;;32.97;17.85;;;;;;;11.45;56.86;100256.16;5024485;27;97098;-72
2024/03/10 01:10:38;;;;;;;35.38;17.80;;;;;;;11.55;56.43;100246.84;5021708;27;97536;-72
2024/03/10 01:13:07;;;;;;;32.50;18.38;;;;;;;11.64;56.03;100252.63;5016928;27;99387;-72
2024/03/10 01:15:33;;;;;;;32.63;18.75;;;;;;;11.55;56.27;100256.59;5024278;27;99092;-71
2024/03/10 01:18:00;;;;;;;34.85;18.05;;;;;;;11.57;56.06;100252.91;5022578;27;96761;-71
2024/03/10 01:20:26;;;;;;;34.92;18.13;;;;;;;11.69;55.88;100240.03;5022004;27;98277;-71
2024/03/10 01:22:53;;;;;;;30.30;16.67;;;;;;;11.57;56.12;100250.28;5026158;27;97496;-70
2024/03/10 01:25:19;;;;;;;32.10;18.08;;;;;;;11.61;56.05;100244.84;5021178;27;98535;-70
2024/03/10 01:27:47;;;;;;;34.70;18.48;;;;;;;11.58;56.24;100228.19;5019304;27;98796;-72
2024/03/10 01:30:14;;;;;;;35.70;18.58;;;;;;;11.40;56.53;100242.28;5025476;27;101353;-72
2024/03/10 01:32:40;;;;;;;33.88;17.02;;;;;;;11.42;56.64;100229.00;5024188;27;101908;-72
2024/03/10 01:35:07;;;;;;;34.00;17.92;;;;;;;11.30;57.11;100222.47;5026588;27;99083;-72
2024/03/10 01:37:33;;;;;;;35.30;18.25;;;;;;;11.16;57.53;100224.88;5025643;27;97283;-72
2024/03/10 01:40:01;;;;;;;34.58;18.80;;;;;;;11.29;57.21;100215.44;5021274;27;96914;-71
2024/03/10 01:42:28;;;;;;;38.38;18.70;;;;;;;11.29;57.29;100217.28;5022035;27;100960;-72
2024/03/10 01:44:56;;;;;;;33.22;18.15;;;;;;;11.34;57.15;100212.63;5015586;27;98801;-72
2024/03/10 01:47:22;;;;;;;33.92;18.80;;;;;;;11.42;57.13;100213.13;5019216;27;96798;-71
2024/03/10 01:49:49;;;;;;;36.63;19.05;;;;;;;11.25;57.45;100208.59;5025271;27;96935;-70
2024/03/10 01:52:17;;;;;;;35.63;17.88;;;;;;;11.15;57.67;100210.84;5029817;27;99149;-71
2024/03/10 01:54:43;;;;;;;32.45;18.35;;;;;;;11.25;57.41;100203.31;5029944;27;98851;-71
2024/03/10 01:57:10;;;;;;;34.40;19.05;;;;;;;11.27;57.48;100206.75;5023624;27;96815;-70
2024/03/10 01:59:38;;;;;;;37.92;19.52;;;;;;;11.23;57.47;100199.88;5026415;27;96937;-70
2024/03/10 02:02:06;;;;;;;35.65;18.95;;;;;;;11.29;57.07;100201.41;5025682;27;99062;-69
2024/03/10 02:04:34;;;;;;;33.80;18.05;;;;;;;11.27;57.47;100206.75;5024712;27;97478;-73
2024/03/10 02:07:00;;;;;;;31.27;17.30;;;;;;;11.43;56.93;100202.44;5015182;27;96898;-73
2024/03/10 02:09:27;;;;;;;32.90;18.58;;;;;;;11.32;57.15;100203.88;5023831;27;96850;-73
2024/03/10 02:11:53;;;;;;;37.83;18.67;;;;;;;11.20;57.39;100200.03;5025986;27;99243;-74
2024/03/10 02:14:21;;;;;;;34.75;19.23;;;;;;;11.15;57.59;100202.03;5024235;27;98225;-74
2024/03/10 02:16:49;;;;;;;33.50;19.40;;;;;;;11.11;57.82;100195.16;5025122;27;97152;-74
2024/03/10 02:19:18;;;;;;;33.55;18.75;;;;;;;11.26;57.45;100193.59;5023006;27;97355;-74
2024/03/10 02:21:45;;;;;;;34.90;18.77;;;;;;;11.12;57.78;100191.59;5019473;27;98924;-72
2024/03/10 02:24:19;;;;;;;37.00;19.33;;;;;;;11.07;57.86;100190.94;5016219;27;100497;-72
2024/03/10 02:26:47;;;;;;;35.53;19.60;;;;;;;10.99;57.96;100196.59;5022750;27;97044;-73
2024/03/10 02:29:18;;;;;;;37.63;19.15;;;;;;;11.18;57.52;100197.44;5021921;27;97863;-71
2024/03/10 02:48:11;;;;;;;39.40;20.50;;;;;;;10.87;58.82;100198.94;5013560;27;98763;-73
2024/03/10 02:50:37;;;;;;;37.47;19.85;;;;;;;10.97;58.33;100194.94;5023091;27;97177;-72
2024/03/10 02:53:05;;;;;;;41.92;21.13;;;;;;;10.96;58.49;100209.94;5025196;27;97604;-72
2024/03/10 02:55:33;;;;;;;43.83;19.77;;;;;;;10.83;58.83;100200.84;5022426;27;101865;-73
2024/03/10 02:58:03;;;;;;;43.97;22.73;;;;;;;10.73;59.09;100200.41;5017675;27;97098;-73
2024/03/10 03:00:30;;;;;;;41.22;22.08;;;;;;;10.83;59.20;100194.72;5019304;27;97864;-72
2024/03/10 03:02:56;;;;;;;45.50;22.80;;;;;;;10.80;59.33;100195.72;5022093;27;97582;-71
2024/03/10 03:05:23;;;;;;;38.72;21.73;;;;;;;10.74;59.42;100196.84;5028073;27;99187;-70
2024/03/10 03:07:49;;;;;;;43.67;21.58;;;;;;;10.70;59.47;100203.19;5026619;27;97496;-71
2024/03/10 03:10:16;;;;;;;41.58;21.70;;;;;;;10.74;59.18;100188.91;5027222;27;97840;-71
2024/03/10 03:12:42;;;;;;;41.78;20.77;;;;;;;10.78;59.12;100193.13;5025593;27;99156;-71
2024/03/10 03:15:10;;;;;;;46.47;22.52;;;;;;;10.72;59.29;100193.41;5026052;27;99298;-70
2024/03/10 03:17:37;;;;;;;41.88;21.70;;;;;;;10.73;59.56;100189.84;5022571;27;96979;-73
2024/03/10 03:20:10;;;;;;;47.67;22.70;;;;;;;10.74;59.37;100191.56;5026221;27;97963;-73
2024/03/10 03:22:36;;;;;;;42.47;21.92;;;;;;;10.69;59.65;100192.69;5022514;27;101204;-71
2024/03/10 03:25:03;;;;;;;42.33;22.08;;;;;;;10.63;59.47;100192.97;5028236;27;101684;-71
2024/03/10 03:27:30;;;;;;;44.88;22.90;;;;;;;10.41;60.38;100198.34;5018357;27;96888;-70
2024/03/10 03:29:56;;;;;;;46.10;23.23;;;;;;;10.50;60.21;100203.19;5031471;27;97737;-72
2024/03/10 03:32:24;;;;;;;48.95;23.33;;;;;;;10.62;59.89;100194.75;5021742;27;99142;-72
2024/03/10 03:34:50;;;;;;;42.55;22.73;;;;;;;10.51;59.90;100189.06;5025364;27;100961;-72
2024/03/10 03:37:17;;;;;;;45.08;22.58;;;;;;;10.48;60.23;100194.50;5022585;27;97648;-70
2024/03/10 03:39:45;;;;;;;49.42;24.05;;;;;;;10.61;60.12;100195.69;5029677;27;97246;-71
2024/03/10 03:42:13;;;;;;;42.78;22.30;;;;;;;10.38;60.79;100182.59;5028384;27;102080;-71
2024/03/10 03:44:40;;;;;;;46.30;24.10;;;;;;;10.19;61.45;100181.69;5027238;27;97959;-71
2024/03/10 03:47:08;;;;;;;46.50;24.50;;;;;;;10.44;60.69;100181.47;5026662;27;97155;-71
2024/03/10 03:49:36;;;;;;;42.65;22.70;;;;;;;10.37;61.11;100180.91;5029677;27;96797;-71
2024/03/10 03:52:06;;;;;;;47.28;23.73;;;;;;;10.38;60.79;100182.59;5025519;27;101556;-73
2024/03/10 03:54:33;;;;;;;48.05;22.88;;;;;;;10.43;60.75;100178.00;5022448;27;99714;-71
2024/03/10 03:56:59;;;;;;;49.35;24.95;;;;;;;10.44;60.83;100187.63;5025397;27;98113;-72
2024/03/10 03:59:26;;;;;;;49.03;23.67;;;;;;;10.42;60.82;100183.34;5027797;27;97124;-71
2024/03/10 04:01:52;;;;;;;45.90;23.95;;;;;;;10.44;60.71;100192.03;5022871;27;99184;-72
2024/03/10 04:04:19;;;;;;;49.30;25.23;;;;;;;10.42;60.75;100180.69;5025792;27;98132;-71
2024/03/10 04:06:47;;;;;;;47.45;24.92;;;;;;;10.31;61.40;100181.16;5022599;27;98420;-70
2024/03/10 04:09:14;;;;;;;55.58;26.38;;;;;;;10.33;61.09;100179.31;5029440;27;96736;-71
2024/03/10 04:11:40;;;;;;;56.25;24.90;;;;;;;10.13;61.78;100172.22;5023401;27;99806;-71
2024/03/10 04:14:07;;;;;;;50.30;24.52;;;;;;;10.38;61.56;100175.53;5026326;27;98865;-71
2024/03/10 04:16:33;;;;;;;52.67;25.65;;;;;;;10.30;61.32;100176.81;5028021;27;96786;-71
2024/03/10 04:19:04;;;;;;;48.15;24.35;;;;;;;10.31;61.73;100176.72;5021763;27;102287;-71
2024/03/10 04:21:30;;;;;;;47.60;25.20;;;;;;;10.30;61.59;100172.41;5026420;27;98951;-71
2024/03/10 04:23:59;;;;;;;56.28;26.83;;;;;;;10.31;61.82;100170.59;5023005;27;98725;-71
2024/03/10 04:26:27;;;;;;;53.33;25.73;;;;;;;10.19;62.04;100176.41;5025480;27;96837;-72
2024/03/10 04:28:53;;;;;;;55.67;27.40;;;;;;;10.18;62.48;100159.69;5028197;27;97498;-71
2024/03/10 04:31:20;;;;;;;53.88;25.52;;;;;;;10.38;61.82;100166.75;5023097;27;99356;-72
2024/03/10 04:33:47;;;;;;;52.72;26.15;;;;;;;10.21;62.38;100169.28;5021592;27;99233;-71
2024/03/10 04:36:14;;;;;;;50.88;24.83;;;;;;;10.22;62.42;100166.59;5028316;27;97061;-71
2024/03/10 04:38:43;;;;;;;55.45;26.67;;;;;;;10.30;61.90;100168.91;5022347;27;97133;-70
2024/03/10 04:41:10;;;;;;;49.88;26.00;;;;;;;10.33;62.09;100164.31;5026006;27;98808;-70
2024/03/10 04:43:37;;;;;;;52.97;25.98;;;;;;;10.25;62.24;100161.16;5019717;27;98997;-72
2024/03/10 04:46:04;;;;;;;54.95;27.45;;;;;;;10.36;61.89;100153.63;5026262;27;97219;-71
2024/03/10 04:48:30;;;;;;;52.45;25.98;;;;;;;10.30;62.08;100161.84;5023835;27;96897;-71
2024/03/10 04:50:57;;;;;;;54.30;26.92;;;;;;;10.22;62.36;100165.72;5029226;27;101812;-70
2024/03/10 04:53:23;;;;;;;48.90;26.55;;;;;;;10.11;62.38;100162.66;5020902;27;99114;-71
2024/03/10 04:55:49;;;;;;;52.30;26.45;;;;;;;10.26;62.59;100156.72;5024992;27;96765;-71
2024/03/10 04:58:17;;;;;;;52.05;25.88;;;;;;;10.24;62.42;100154.16;5018075;27;97493;-71
2024/03/10 05:00:44;;;;;;;53.75;27.30;;;;;;;10.27;62.46;100161.09;5021098;27;98809;-70
2024/03/10 05:03:10;;;;;;;50.33;24.95;;;;;;;10.25;62.65;100171.72;5021609;27;98814;-71
2024/03/10 05:05:37;;;;;;;56.33;26.40;;;;;;;10.19;62.82;100171.13;5029041;27;96937;-71
2024/03/10 05:08:04;;;;;;;52.30;26.02;;;;;;;10.28;62.66;100173.38;5023204;27;98773;-73
2024/03/10 05:10:30;;;;;;;55.38;26.63;;;;;;;10.12;62.70;100172.28;5016041;27;98931;-74
2024/03/10 05:12:57;;;;;;;52.60;25.75;;;;;;;10.27;62.49;100169.88;5022117;27;98358;-70
2024/03/10 05:15:25;;;;;;;53.17;25.55;;;;;;;10.28;62.39;100176.88;5022175;27;97175;-71
2024/03/10 05:17:52;;;;;;;56.67;26.42;;;;;;;10.36;62.06;100172.13;5021612;27;99042;-70
2024/03/10 05:20:23;;;;;;;54.53;26.23;;;;;;;10.28;62.12;100171.59;5022449;27;99263;-71
2024/03/10 05:22:49;;;;;;;62.40;28.23;;;;;;;10.21;62.41;100161.38;5026753;27;98900;-70
2024/03/10 05:25:16;;;;;;;55.50;27.58;;;;;;;10.05;62.93;100170.81;5024170;27;98774;-71
2024/03/10 05:27:42;;;;;;;58.72;28.80;;;;;;;10.11;62.85;100168.78;5015272;27;96833;-71
2024/03/10 05:30:10;;;;;;;56.22;26.83;;;;;;;10.11;63.12;100167.94;5022446;27;99266;-71
2024/03/10 05:32:38;;;;;;;60.22;28.80;;;;;;;9.98;63.35;100176.34;5027052;27;98057;-72
2024/03/10 05:35:05;;;;;;;55.90;28.27;;;;;;;10.07;63.38;100163.69;5026329;27;96846;-71
2024/03/10 05:37:32;;;;;;;55.95;26.52;;;;;;;10.09;63.38;100167.13;5018808;27;96906;-72
2024/03/10 05:39:58;;;;;;;59.75;26.45;;;;;;;10.07;63.18;100161.06;5022534;27;98863;-72
2024/03/10 05:42:25;;;;;;;55.42;26.95;;;;;;;10.08;63.14;100152.22;5024766;27;99154;-72
2024/03/10 05:44:51;;;;;;;50.88;24.95;;;;;;;10.01;63.19;100154.25;5029221;27;97500;-72
2024/03/10 05:47:18;;;;;;;51.92;24.85;;;;;;;10.20;62.72;100152.56;5015752;27;97296;-71
2024/03/10 05:49:47;;;;;;;53.60;27.45;;;;;;;10.13;63.06;100150.22;5022964;27;99610;-74
2024/03/10 05:52:13;;;;;;;54.20;26.02;;;;;;;10.11;63.29;100152.09;5027387;27;99091;-74
2024/03/10 05:54:40;;;;;;;51.47;25.35;;;;;;;10.22;62.93;100144.59;5023433;27;96848;-73
2024/03/10 05:57:06;;;;;;;52.05;26.17;;;;;;;10.05;63.08;100141.78;5017500;27;99341;-72
2024/03/10 05:59:33;;;;;;;55.03;27.17;;;;;;;10.06;63.60;100139.06;5028368;27;99090;-72
2024/03/10 06:01:59;;;;;;;58.63;25.85;;;;;;;10.16;62.96;100148.34;5023310;27;99144;-72
2024/03/10 06:04:26;;;;;;;54.45;25.63;;;;;;;10.17;63.22;100147.44;5016209;27;98877;-72
2024/03/10 06:06:53;;;;;;;54.83;25.50;;;;;;;10.29;62.71;100146.06;5018425;27;97103;-73
2024/03/10 06:09:20;;;;;;;50.90;25.67;;;;;;;10.13;63.18;100143.16;5021580;27;99211;-72
2024/03/10 06:11:46;;;;;;;55.17;26.85;;;;;;;10.21;62.70;100138.47;5017710;27;97776;-71
2024/03/10 06:14:13;;;;;;;54.67;26.55;;;;;;;10.39;62.44;100142.94;5019459;27;97503;-72
2024/03/10 06:16:39;;;;;;;52.08;25.83;;;;;;;10.15;63.13;100140.47;5020643;27;96964;-72
2024/03/10 06:27:19;;;;;;;52.38;25.42;;;;;;;10.29;62.44;100153.97;5013728;27;96771;-71
2024/03/10 06:29:46;;;;;;;51.90;26.20;;;;;;;10.24;62.69;100158.59;5025542;27;99037;-71
2024/03/10 06:32:14;;;;;;;51.50;26.27;;;;;;;10.45;61.98;100155.00;5023423;27;99254;-72
2024/03/10 06:34:43;;;;;;;56.50;25.02;;;;;;;10.53;62.05;100147.59;5013047;27;98174;-73
2024/03/10 06:37:10;;;;;;;50.30;27.05;;;;;;;10.73;61.54;100141.41;5003318;27;97594;-73
2024/03/10 06:39:37;;;;;;;47.13;25.40;;;;;;;10.74;61.06;100137.84;5003805;27;99559;-72
2024/03/10 06:42:05;;;;;;;56.22;25.77;;;;;;;10.70;61.23;100139.75;5005434;27;100313;-71
2024/03/10 06:44:31;;;;;;;50.20;25.20;;;;;;;10.78;60.71;100139.41;5015686;27;97397;-72
2024/03/10 06:46:57;;;;;;;53.92;25.55;;;;;;;10.84;60.44;100138.28;5021738;27;98703;-72
2024/03/10 06:49:24;;;;;;;49.67;25.55;;;;;;;11.07;60.06;100141.56;5016443;27;99860;-71
2024/03/10 06:51:50;;;;;;;52.33;25.60;;;;;;;10.94;60.44;100142.22;5019962;27;99664;-72
2024/03/10 06:54:17;;;;;;;50.15;24.23;;;;;;;11.09;59.35;100139.69;5023001;27;97305;-72
2024/03/10 06:56:45;;;;;;;48.42;24.63;;;;;;;11.05;60.24;100137.28;5014608;27;97279;-73
2024/03/10 06:59:12;;;;;;;50.65;24.92;;;;;;;10.98;60.44;100141.13;5013395;27;101483;-74
2024/03/10 07:01:44;;;;;;;48.63;24.02;;;;;;;11.02;60.43;100148.00;5011757;27;99194;-72
2024/03/10 07:04:11;;;;;;;52.28;25.30;;;;;;;11.07;60.09;100138.94;5021137;27;98531;-71
2024/03/10 07:06:37;;;;;;;49.50;24.98;;;;;;;11.31;59.53;100142.19;5008736;27;98797;-71
2024/03/10 07:09:09;;;;;;;52.10;25.35;;;;;;;11.20;59.61;100141.84;5017994;27;100576;-72
2024/03/10 07:11:35;;;;;;;49.38;25.52;;;;;;;11.34;59.46;100138.56;5017844;27;100083;-72
2024/03/10 07:14:03;;;;;;;51.80;26.15;;;;;;;11.59;58.46;100142.56;5024134;27;96840;-72
2024/03/10 07:16:29;;;;;;;45.20;23.23;;;;;;;11.70;58.31;100142.03;5015679;27;98547;-72
2024/03/10 07:18:56;;;;;;;48.50;24.55;;;;;;;11.98;57.47;100142.41;5026688;27;101428;-72
2024/03/10 07:21:23;;;;;;;44.47;25.15;;;;;;;12.10;56.93;100135.63;5027304;27;99707;-72
2024/03/10 07:23:49;;;;;;;54.70;23.67;;;;;;;12.06;57.27;100143.81;5026853;27;99030;-72
2024/03/10 07:26:16;;;;;;;47.25;24.83;;;;;;;12.02;57.33;100148.38;5021891;27;98505;-71
2024/03/10 07:28:43;;;;;;;46.63;25.05;;;;;;;12.37;56.39;100144.78;5025080;27;99265;-72
2024/03/10 07:31:11;;;;;;;43.83;24.33;;;;;;;12.43;56.09;100145.41;5019802;27;98755;-72
2024/03/10 07:33:38;;;;;;;47.65;24.02;;;;;;;12.24;56.52;100137.56;5022430;27;98299;-72
2024/03/10 07:36:05;;;;;;;48.45;24.45;;;;;;;12.52;55.76;100134.34;5030984;27;97426;-72
2024/03/10 07:38:31;;;;;;;47.00;24.50;;;;;;;12.38;55.93;100133.25;5028340;27;98860;-72
2024/03/10 07:40:58;;;;;;;45.80;24.88;;;;;;;12.40;56.40;100127.03;5024939;27;98934;-72
2024/03/10 07:43:24;;;;;;;45.92;24.13;;;;;;;12.61;55.87;100128.53;5030396;27;97246;-72
2024/03/10 07:45:51;;;;;;;47.28;24.23;;;;;;;12.58;55.27;100131.34;5030318;27;96870;-71
2024/03/10 07:48:19;;;;;;;47.08;23.95;;;;;;;12.77;55.18;100126.78;5024665;27;98892;-72
2024/03/10 07:50:46;;;;;;;46.58;24.20;;;;;;;12.94;54.76;100133.78;5027255;27;98700;-72
2024/03/10 07:53:13;;;;;;;46.97;23.55;;;;;;;13.26;53.84;100129.41;5030089;27;98556;-70
2024/03/10 07:55:39;;;;;;;43.60;23.50;;;;;;;13.07;53.97;100130.38;5033016;27;97127;-71
2024/03/10 07:58:06;;;;;;;48.40;24.23;;;;;;;12.92;54.42;100138.34;5026153;27;99205;-70
2024/03/10 08:00:33;;;;;;;45.28;24.85;;;;;;;13.34;53.91;100138.63;5028530;27;101638;-74
2024/03/10 08:02:59;;;;;;;44.53;24.98;;;;;;;13.54;53.02;100129.53;5032536;27;97595;-72
2024/03/10 08:05:29;;;;;;;48.10;23.45;;;;;;;13.51;53.15;100132.38;5034788;27;96847;-72
2024/03/10 08:07:56;;;;;;;42.65;24.17;;;;;;;13.58;53.01;100141.72;5027259;27;97756;-73
2024/03/10 08:10:23;;;;;;;50.10;25.05;;;;;;;13.57;53.00;100134.69;5028447;27;102568;-71
2024/03/10 08:12:50;;;;;;;45.92;24.50;;;;;;;13.79;52.69;100135.13;5023119;27;97284;-72
2024/03/10 08:15:18;;;;;;;41.22;23.25;;;;;;;14.05;51.63;100132.75;5022129;27;97093;-73
2024/03/10 08:17:44;;;;;;;42.30;23.58;;;;;;;13.91;51.86;100126.44;5025559;27;96931;-72
2024/03/10 08:20:13;;;;;;;38.60;21.75;;;;;;;14.37;50.80;100121.06;5024599;27;98766;-73
2024/03/10 08:22:42;;;;;;;42.53;23.55;;;;;;;14.81;49.92;100130.78;5024707;27;97321;-72
2024/03/10 08:25:09;;;;;;;43.92;23.85;;;;;;;15.05;48.55;100118.59;5027003;27;96935;-72
2024/03/10 08:27:36;;;;;;;43.38;22.83;;;;;;;14.64;49.33;100119.38;5029293;27;100888;-72
2024/03/10 08:30:03;;;;;;;45.33;23.63;;;;;;;14.78;49.07;100118.53;5023638;27;98324;-73
2024/03/10 08:32:29;;;;;;;39.00;22.05;;;;;;;14.90;48.98;100120.41;5023925;27;98535;-73
2024/03/10 08:34:56;;;;;;;43.08;23.23;;;;;;;14.99;48.54;100103.03;5024906;27;97148;-73
2024/03/10 08:37:22;;;;;;;41.92;22.25;;;;;;;15.10;48.20;100105.84;5020548;27;98843;-72
2024/03/10 08:39:50;;;;;;;43.90;23.58;;;;;;;15.06;48.58;100112.31;5024138;27;99619;-73
2024/03/10 08:42:18;;;;;;;41.55;23.50;;;;;;;15.19;48.05;100109.72;5022194;27;98827;-72
2024/03/10 08:44:45;;;;;;;41.72;23.90;;;;;;;15.19;48.16;100104.41;5022529;27;97556;-73
2024/03/10 08:47:12;;;;;;;43.00;23.90;;;;;;;15.23;47.92;100109.41;5020356;27;99046;-72
2024/03/10 08:49:39;;;;;;;39.75;22.05;;;;;;;15.00;48.63;100102.06;5025457;27;99172;-73
2024/03/10 08:52:07;;;;;;;40.83;23.27;;;;;;;15.36;47.91;100110.34;5022576;27;98273;-72
2024/03/10 08:54:36;;;;;;;40.55;22.83;;;;;;;15.24;47.75;100110.28;5024240;27;97731;-73
2024/03/10 08:57:05;;;;;;;40.15;23.75;;;;;;;15.36;47.43;100110.34;5018724;27;99032;-72
2024/03/10 08:59:31;;;;;;;41.35;23.83;;;;;;;15.57;47.05;100109.91;5023584;27;97739;-72
2024/03/10 09:01:58;;;;;;;40.80;24.15;;;;;;;15.66;46.99;100107.50;5019888;27;97540;-72
2024/03/10 09:04:24;;;;;;;38.05;22.15;;;;;;;15.94;46.06;100106.53;5015509;27;98335;-69
2024/03/10 09:06:52;;;;;;;43.97;23.15;;;;;;;15.91;45.81;100109.38;5019937;27;98887;-72
2024/03/10 09:09:18;;;;;;;39.97;22.80;;;;;;;15.97;45.81;100103.63;5019850;27;100178;-71
2024/03/10 09:11:45;;;;;;;40.95;23.00;;;;;;;15.92;46.01;100111.94;5027066;27;97450;-72
2024/03/10 09:14:13;;;;;;;36.72;21.23;;;;;;;15.97;45.82;100102.78;5021569;27;97043;-69
2024/03/10 09:16:39;;;;;;;37.90;22.83;;;;;;;16.10;45.67;100104.50;5023257;27;99842;-72
2024/03/10 09:19:07;;;;;;;39.60;22.58;;;;;;;16.09;45.68;100105.47;5023550;27;97538;-70
2024/03/10 09:21:34;;;;;;;43.97;22.70;;;;;;;15.88;46.21;100104.28;5026727;27;99857;-71
2024/03/10 09:24:00;;;;;;;37.40;22.02;;;;;;;15.86;46.24;100100.84;5025620;27;96873;-71
2024/03/10 09:26:28;;;;;;;36.35;20.98;;;;;;;15.93;45.92;100107.47;5021676;27;98243;-70
2024/03/10 09:28:55;;;;;;;41.25;22.80;;;;;;;15.63;46.92;100102.38;5019084;27;99221;-69
2024/03/10 09:31:23;;;;;;;41.58;22.83;;;;;;;15.48;47.38;100096.25;5020687;27;96738;-70
2024/03/10 09:33:51;;;;;;;34.60;20.95;;;;;;;15.40;47.75;100098.53;5024609;27;96912;-70
2024/03/10 09:36:17;;;;;;;36.92;22.33;;;;;;;15.50;47.59;100094.31;5019962;27;99110;-70
2024/03/10 09:38:45;;;;;;;36.72;22.48;;;;;;;15.52;47.58;100100.44;5018794;27;99133;-70
2024/03/10 09:41:13;;;;;;;37.58;22.17;;;;;;;15.65;47.44;100107.59;5030509;27;96729;-70
2024/03/10 09:43:41;;;;;;;43.85;23.38;;;;;;;16.17;46.62;100105.78;5023060;27;96888;-70
2024/03/10 09:46:10;;;;;;;42.75;23.08;;;;;;;16.22;46.38;100106.31;5026207;27;101542;-71
2024/03/10 09:48:42;;;;;;;39.15;23.52;;;;;;;16.30;45.91;100101.31;5026246;27;98774;-70
2024/03/10 09:51:13;;;;;;;37.92;20.35;;;;;;;16.44;45.66;100107.50;5025006;27;96744;-72
2024/03/10 09:53:40;;;;;;;38.75;22.35;;;;;;;16.35;45.81;100103.66;5023206;27;97311;-71
2024/03/10 09:56:08;;;;;;;37.92;22.05;;;;;;;16.32;45.98;100094.09;5020993;27;99469;-70
2024/03/10 09:58:47;;;;;;;37.15;21.40;;;;;;;16.50;45.54;100096.41;5025351;27;98644;-70
2024/03/10 10:01:18;;;;;;;38.17;22.38;;;;;;;16.54;45.45;100092.59;5031481;27;97353;-73
2024/03/10 10:03:49;;;;;;;40.45;22.77;;;;;;;16.48;45.86;100093.00;5028356;27;96880;-71
2024/03/10 10:06:18;;;;;;;38.33;22.42;;;;;;;16.51;45.63;100092.78;5025587;27;101932;-71
2024/03/10 10:08:51;;;;;;;36.75;22.05;;;;;;;16.61;45.68;100084.06;5022212;27;98924;-71
2024/03/10 10:11:18;;;;;;;41.42;23.02;;;;;;;17.03;44.65;100093.50;5013842;27;98388;-70
2024/03/10 10:14:09;;;;;;;37.00;21.70;;;;;;;16.88;44.80;100086.56;5024698;27;97083;-70
2024/03/10 10:16:38;;;;;;;38.20;22.10;;;;;;;16.91;44.96;100085.50;5022826;27;101703;-71
2024/03/10 10:19:12;;;;;;;41.28;22.83;;;;;;;17.17;43.91;100092.50;5021409;27;100673;-70
2024/03/10 10:21:39;;;;;;;35.05;21.17;;;;;;;16.96;44.55;100083.34;5027475;27;97909;-71
2024/03/10 10:24:09;;;;;;;36.53;22.10;;;;;;;17.00;44.25;100083.00;5024882;27;98061;-71
2024/03/10 10:26:36;;;;;;;35.80;21.67;;;;;;;17.13;44.01;100072.34;5029992;27;98904;-71
2024/03/10 10:29:07;;;;;;;37.20;22.20;;;;;;;16.91;44.57;100082.84;5022912;27;99827;-70
2024/03/10 10:31:34;;;;;;;38.92;21.15;;;;;;;16.96;44.39;100078.88;5027062;27;97161;-70
2024/03/10 10:34:00;;;;;;;36.65;22.60;;;;;;;16.89;44.50;100082.09;5021482;27;98039;-71
2024/03/10 10:36:28;;;;;;;38.85;22.73;;;;;;;16.39;45.67;100077.66;5017257;27;97759;-71
2024/03/10 10:38:55;;;;;;;40.22;22.25;;;;;;;16.48;45.89;100072.50;5032918;27;99116;-71
2024/03/10 10:41:22;;;;;;;38.35;21.33;;;;;;;16.45;45.79;100071.91;5024479;27;96825;-70
2024/03/10 10:43:48;;;;;;;37.63;22.15;;;;;;;16.34;46.44;100065.47;5020658;27;97877;-70
2024/03/10 10:46:15;;;;;;;35.42;21.38;;;;;;;16.28;46.65;100052.59;5017642;27;98843;-71
2024/03/10 10:48:45;;;;;;;38.10;22.10;;;;;;;16.57;46.02;100053.22;5026189;27;98918;-73
2024/03/10 10:51:14;;;;;;;40.33;21.80;;;;;;;16.62;46.24;100053.75;5020767;27;99411;-71
2024/03/10 10:53:43;;;;;;;39.30;22.02;;;;;;;17.01;44.95;100055.38;5030721;27;97391;-71
2024/03/10 10:56:11;;;;;;;39.38;23.35;;;;;;;16.61;45.99;100046.72;5033696;27;97063;-71
2024/03/10 10:58:37;;;;;;;38.40;21.65;;;;;;;16.83;45.54;100047.84;5036139;27;99129;-71
2024/03/10 11:01:09;;;;;;;34.85;21.33;;;;;;;16.68;45.78;100041.78;5029371;27;98909;-70
2024/03/10 11:03:37;;;;;;;42.65;23.95;;;;;;;16.79;45.64;100039.22;5027990;27;97074;-71
2024/03/10 11:06:30;;;;;;;38.85;22.05;;;;;;;16.85;45.42;100038.78;5028821;27;98237;-71
2024/03/10 11:08:58;;;;;;;40.28;21.92;;;;;;;16.88;45.60;100030.53;5032014;27;100852;-71
2024/03/10 11:11:45;;;;;;;44.55;23.83;;;;;;;16.97;45.31;100015.69;5030604;27;98498;-71
2024/03/10 11:14:15;;;;;;;38.65;23.48;;;;;;;16.86;45.60;100021.81;5027229;27;96939;-71
2024/03/10 11:16:42;;;;;;;37.53;22.40;;;;;;;17.04;45.45;100017.78;5027814;27;99300;-73
2024/03/10 11:19:14;;;;;;;40.85;23.40;;;;;;;17.18;44.84;100006.09;5026443;27;98809;-73
2024/03/10 11:21:41;;;;;;;39.53;23.23;;;;;;;17.29;44.67;100002.63;5030143;27;96788;-70
2024/03/10 11:24:16;;;;;;;38.95;22.38;;;;;;;17.47;44.02;100002.06;5029683;27;96840;-71
2024/03/10 11:26:43;;;;;;;37.67;21.63;;;;;;;17.34;43.96;100003.97;5026922;27;98963;-71
2024/03/10 11:29:23;;;;;;;39.03;21.95;;;;;;;17.09;44.86;99998.75;5030448;27;101501;-70
2024/03/10 11:31:51;;;;;;;36.47;21.90;;;;;;;17.24;44.69;99999.44;5028746;27;96828;-71
2024/03/10 11:34:18;;;;;;;38.65;22.63;;;;;;;17.28;44.32;100003.56;5029816;27;96926;-71
2024/03/10 11:36:46;;;;;;;34.53;20.67;;;;;;;17.32;44.33;99991.72;5025855;27;99156;-72